Time,TemperatureF,DewpointF,PressureIn,WindDirection,WindDirectionDegrees,WindSpeedMPH,WindSpeedGustMPH,Humidity,HourlyPrecipIn,Conditions,Clouds,dailyrainin,SoftwareType,DateUTC
2013-08-11 00:04:00,58.6,52.8,30.17,WNW,284,0.0,0.0,81,0.00,NA,NA,-99.99,VWS Version 10.38,2013-08-11 04:04:00,
2013-08-11 00:09:00,58.5,53.0,30.17,WNW,284,0.0,0.0,82,0.00,NA,NA,-99.99,VWS Version 10.38,2013-08-11 04:09:00,
2013-08-11 00:14:00,58.3,52.8,30.17,WNW,284,0.0,0.0,82,0.00,NA,NA,-99.99,VWS Version 10.38,2013-08-11 04:14:00,
2013-08-11 00:19:00,58.1,52.6,30.17,WNW,284,0.0,0.0,82,0.00,NA,NA,-99.99,VWS Version 10.38,2013-08-11 04:19:00,
2013-08-11 00:24:00,57.9,52.5,30.17,WNW,284,0.0,0.0,82,0.00,NA,NA,-99.99,VWS Version 10.38,2013-08-11 04:24:00,
2013-08-11 00:29:00,57.9,52.5,30.17,WNW,284,0.0,0.0,82,0.00,NA,NA,-99.99,VWS Version 10.38,2013-08-11 04:29:00,
2013-08-11 00:39:00,57.4,51.9,30.17,WNW,284,0.0,0.0,82,0.00,NA,NA,-99.99,VWS Version 10.38,2013-08-11 04:39:00,
2013-08-11 00:44:00,57.2,51.8,30.17,WNW,284,0.0,0.0,82,0.00,NA,NA,-99.99,VWS Version 10.38,2013-08-11 04:44:00,
2013-08-11 00:49:00,57.2,51.8,30.17,WNW,284,0.0,0.0,82,0.00,NA,NA,-99.99,VWS Version 10.38,2013-08-11 04:49:00,
2013-08-11 00:54:00,57.2,51.8,30.17,WNW,284,0.0,0.0,82,0.00,NA,NA,-99.99,VWS Version 10.38,2013-08-11 04:54:00,
2013-08-11 00:59:00,56.7,51.6,30.17,WNW,284,0.0,0.0,83,0.00,NA,NA,-99.99,VWS Version 10.38,2013-08-11 04:59:00,
2013-08-11 01:05:00,56.7,51.6,30.17,WNW,284,0.0,0.0,83,0.00,NA,NA,-99.99,VWS Version 10.38,2013-08-11 05:05:00,
2013-08-11 01:10:00,56.7,51.6,30.17,WNW,284,0.0,0.0,83,0.00,NA,NA,-99.99,VWS Version 10.38,2013-08-11 05:10:00,
2013-08-11 01:15:00,55.9,50.9,30.17,WNW,284,0.0,0.0,83,0.00,NA,NA,-99.99,VWS Version 10.38,2013-08-11 05:15:00,
2013-08-11 01:20:00,55.9,50.9,30.17,WNW,284,0.0,0.0,83,0.00,NA,NA,-99.99,VWS Version 10.38,2013-08-11 05:20:00,
2013-08-11 01:25:00,55.4,50.3,30.17,WNW,284,0.0,0.0,83,0.00,NA,NA,-99.99,VWS Version 10.38,2013-08-11 05:25:00,
2013-08-11 01:35:00,55.0,50.0,30.17,WNW,284,0.0,0.0,83,0.00,NA,NA,-99.99,VWS Version 10.38,2013-08-11 05:35:00,
2013-08-11 01:45:00,54.9,50.1,30.17,WNW,284,0.0,0.0,84,0.00,NA,NA,-99.99,VWS Version 10.38,2013-08-11 05:45:00,
2013-08-11 01:55:00,54.7,50.0,30.20,WNW,284,0.0,0.0,84,0.00,NA,NA,-99.99,VWS Version 10.38,2013-08-11 05:55:00,
2013-08-11 02:00:00,54.5,49.8,30.20,WNW,284,0.0,0.0,84,0.00,NA,NA,-99.99,VWS Version 10.38,2013-08-11 06:00:00,
2013-08-11 02:05:00,54.1,49.4,30.20,WNW,284,0.0,0.0,84,0.00,NA,NA,-99.99,VWS Version 10.38,2013-08-11 06:05:00,
2013-08-11 02:15:00,53.6,48.9,30.20,WNW,284,0.0,0.0,84,0.00,NA,NA,-99.99,VWS Version 10.38,2013-08-11 06:15:00,
2013-08-11 02:20:00,53.4,48.7,30.20,WNW,284,0.0,0.0,84,0.00,NA,NA,-99.99,VWS Version 10.38,2013-08-11 06:20:00,
2013-08-11 02:25:00,53.4,48.7,30.20,WNW,284,0.0,0.0,84,0.00,NA,NA,-99.99,VWS Version 10.38,2013-08-11 06:25:00,
2013-08-11 02:30:00,53.2,48.5,30.20,WNW,284,0.0,0.0,84,0.00,NA,NA,-99.99,VWS Version 10.38,2013-08-11 06:30:00,
2013-08-11 02:35:00,53.2,48.5,30.20,WNW,284,0.0,0.0,84,0.00,NA,NA,-99.99,VWS Version 10.38,2013-08-11 06:35:00,
2013-08-11 02:40:00,53.1,48.4,30.20,WNW,284,0.0,0.0,84,0.00,NA,NA,-99.99,VWS Version 10.38,2013-08-11 06:40:00,
2013-08-11 02:45:00,53.1,48.4,30.20,WNW,284,0.0,0.0,84,0.00,NA,NA,-99.99,VWS Version 10.38,2013-08-11 06:45:00,
2013-08-11 02:55:00,52.9,48.2,30.20,WNW,284,0.0,0.0,84,0.00,NA,NA,-99.99,VWS Version 10.38,2013-08-11 06:55:00,
2013-08-11 03:00:00,52.9,48.5,30.20,WNW,284,0.0,0.0,85,0.00,NA,NA,-99.99,VWS Version 10.38,2013-08-11 07:00:00,
2013-08-11 03:10:00,52.9,48.5,30.20,WNW,284,0.0,0.0,85,0.00,NA,NA,-99.99,VWS Version 10.38,2013-08-11 07:10:00,
2013-08-11 03:15:00,52.7,48.3,30.20,WNW,284,0.0,0.0,85,0.00,NA,NA,-99.99,VWS Version 10.38,2013-08-11 07:15:00,
2013-08-11 03:20:00,52.7,48.3,30.20,WNW,284,0.0,0.0,85,0.00,NA,NA,-99.99,VWS Version 10.38,2013-08-11 07:20:00,
2013-08-11 03:29:00,52.5,48.2,30.20,WNW,284,0.0,0.0,85,0.00,NA,NA,-99.99,VWS Version 10.38,2013-08-11 07:29:00,
2013-08-11 03:34:00,52.2,47.8,30.20,WNW,284,0.0,0.0,85,0.00,NA,NA,-99.99,VWS Version 10.38,2013-08-11 07:34:00,
2013-08-11 03:39:00,52.2,47.8,30.20,WNW,284,0.0,0.0,85,0.00,NA,NA,-99.99,VWS Version 10.38,2013-08-11 07:39:00,
2013-08-11 03:44:00,52.0,47.6,30.20,WNW,284,0.0,0.0,85,0.00,NA,NA,-99.99,VWS Version 10.38,2013-08-11 07:44:00,
2013-08-11 03:49:00,51.8,47.4,30.20,WNW,284,0.0,0.0,85,0.00,NA,NA,-99.99,VWS Version 10.38,2013-08-11 07:49:00,
2013-08-11 03:54:00,51.8,47.4,30.20,WNW,284,0.0,0.0,85,0.00,NA,NA,-99.99,VWS Version 10.38,2013-08-11 07:54:00,
2013-08-11 03:59:00,52.0,47.6,30.20,WNW,284,0.0,0.0,85,0.00,NA,NA,-99.99,VWS Version 10.38,2013-08-11 07:59:00,
2013-08-11 04:09:00,51.8,47.4,30.20,WNW,284,0.0,0.0,85,0.00,NA,NA,-99.99,VWS Version 10.38,2013-08-11 08:09:00,
2013-08-11 04:14:00,51.6,47.6,30.20,WNW,284,0.0,0.0,86,0.00,NA,NA,-99.99,VWS Version 10.38,2013-08-11 08:14:00,
2013-08-11 04:19:00,51.6,47.6,30.20,WNW,284,0.0,0.0,86,0.00,NA,NA,-99.99,VWS Version 10.38,2013-08-11 08:19:00,
2013-08-11 04:24:00,51.6,47.6,30.23,WNW,284,0.0,0.0,86,0.00,NA,NA,-99.99,VWS Version 10.38,2013-08-11 08:24:00,
2013-08-11 04:29:00,51.6,47.6,30.23,WNW,284,0.0,0.0,86,0.00,NA,NA,-99.99,VWS Version 10.38,2013-08-11 08:29:00,
2013-08-11 04:34:00,51.4,47.4,30.23,WNW,284,0.0,0.0,86,0.00,NA,NA,-99.99,VWS Version 10.38,2013-08-11 08:34:00,
2013-08-11 04:39:00,51.3,47.2,30.23,WNW,284,0.0,0.0,86,0.00,NA,NA,-99.99,VWS Version 10.38,2013-08-11 08:39:00,
2013-08-11 04:59:00,51.3,47.2,30.23,WNW,284,0.0,0.0,86,0.00,NA,NA,-99.99,VWS Version 10.38,2013-08-11 08:59:00,
2013-08-11 05:04:00,51.1,47.0,30.23,WNW,284,0.0,0.0,86,0.00,NA,NA,-99.99,VWS Version 10.38,2013-08-11 09:04:00,
2013-08-11 05:09:00,50.9,46.9,30.23,WNW,284,0.0,0.0,86,0.00,NA,NA,-99.99,VWS Version 10.38,2013-08-11 09:09:00,
2013-08-11 05:14:00,51.1,47.0,30.23,WNW,284,0.0,0.0,86,0.00,NA,NA,-99.99,VWS Version 10.38,2013-08-11 09:14:00,
2013-08-11 05:19:00,51.1,47.3,30.23,WNW,284,0.0,0.0,87,0.00,NA,NA,-99.99,VWS Version 10.38,2013-08-11 09:19:00,
2013-08-11 05:29:00,50.9,47.2,30.23,WNW,284,0.0,0.0,87,0.00,NA,NA,-99.99,VWS Version 10.38,2013-08-11 09:29:00,
2013-08-11 05:34:00,50.7,46.7,30.23,WNW,284,0.0,0.0,86,0.00,NA,NA,-99.99,VWS Version 10.38,2013-08-11 09:34:00,
2013-08-11 05:39:00,50.7,47.0,30.23,WNW,284,0.0,0.0,87,0.00,NA,NA,-99.99,VWS Version 10.38,2013-08-11 09:39:00,
2013-08-11 05:49:00,50.7,47.0,30.23,WNW,284,0.0,0.0,87,0.00,NA,NA,-99.99,VWS Version 10.38,2013-08-11 09:49:00,
2013-08-11 05:54:00,50.7,47.0,30.23,WNW,284,0.0,0.0,87,0.00,NA,NA,-99.99,VWS Version 10.38,2013-08-11 09:54:00,
2013-08-11 06:04:00,50.5,46.8,30.23,WNW,284,0.0,0.0,87,0.00,NA,NA,-99.99,VWS Version 10.38,2013-08-11 10:04:00,
2013-08-11 06:09:00,50.5,46.8,30.23,WNW,284,0.0,0.0,87,0.00,NA,NA,-99.99,VWS Version 10.38,2013-08-11 10:09:00,
2013-08-11 06:14:00,50.4,46.6,30.23,WNW,284,0.0,0.0,87,0.00,NA,NA,-99.99,VWS Version 10.38,2013-08-11 10:14:00,
2013-08-11 06:20:00,50.4,47.0,30.23,WNW,284,0.0,0.0,88,0.00,NA,NA,-99.99,VWS Version 10.38,2013-08-11 10:20:00,
2013-08-11 06:29:00,50.5,47.1,30.26,WNW,284,0.0,0.0,88,0.00,NA,NA,-99.99,VWS Version 10.38,2013-08-11 10:29:00,
2013-08-11 06:34:00,50.9,47.8,30.26,WNW,284,0.0,0.0,89,0.00,NA,NA,-99.99,VWS Version 10.38,2013-08-11 10:34:00,
2013-08-11 06:44:00,50.7,47.3,30.26,WNW,284,0.0,0.0,88,0.00,NA,NA,-99.99,VWS Version 10.38,2013-08-11 10:44:00,
2013-08-11 06:49:00,50.9,47.8,30.26,WNW,284,0.0,0.0,89,0.00,NA,NA,-99.99,VWS Version 10.38,2013-08-11 10:49:00,
2013-08-11 06:54:00,51.3,48.1,30.26,WNW,284,0.0,0.0,89,0.00,NA,NA,-99.99,VWS Version 10.38,2013-08-11 10:54:00,
2013-08-11 06:59:00,51.4,48.3,30.26,WNW,284,0.0,0.0,89,0.00,NA,NA,-99.99,VWS Version 10.38,2013-08-11 10:59:00,
2013-08-11 07:04:00,51.8,48.7,30.26,WNW,284,0.0,0.0,89,0.00,NA,NA,-99.99,VWS Version 10.38,2013-08-11 11:04:00,
2013-08-11 07:09:00,52.2,49.0,30.26,WNW,284,0.0,0.0,89,0.00,NA,NA,-99.99,VWS Version 10.38,2013-08-11 11:09:00,
2013-08-11 07:14:00,52.5,49.7,30.26,WNW,284,0.0,0.0,90,0.00,NA,NA,-99.99,VWS Version 10.38,2013-08-11 11:14:00,
2013-08-11 07:24:00,53.1,50.2,30.26,WNW,284,0.0,0.0,90,0.00,NA,NA,-99.99,VWS Version 10.38,2013-08-11 11:24:00,
2013-08-11 07:29:00,53.2,50.4,30.26,WNW,284,0.0,0.0,90,0.00,NA,NA,-99.99,VWS Version 10.38,2013-08-11 11:29:00,
2013-08-11 07:39:00,53.8,50.9,30.26,WNW,284,0.0,0.0,90,0.00,NA,NA,-99.99,VWS Version 10.38,2013-08-11 11:39:00,
2013-08-11 07:44:00,54.3,51.5,30.26,WNW,284,0.0,0.0,90,0.00,NA,NA,-99.99,VWS Version 10.38,2013-08-11 11:44:00,
2013-08-11 07:49:00,55.0,52.5,30.26,WNW,284,0.0,0.0,91,0.00,NA,NA,-99.99,VWS Version 10.38,2013-08-11 11:49:00,
2013-08-11 07:59:00,56.7,54.1,30.26,WNW,284,0.0,0.0,91,0.00,NA,NA,-99.99,VWS Version 10.38,2013-08-11 11:59:00,
2013-08-11 08:04:00,57.6,55.0,30.26,WNW,284,0.0,0.0,91,0.00,NA,NA,-99.99,VWS Version 10.38,2013-08-11 12:04:00,
2013-08-11 08:09:00,58.8,56.2,30.26,WNW,284,0.0,0.0,91,0.00,NA,NA,-99.99,VWS Version 10.38,2013-08-11 12:09:00,
2013-08-11 08:19:00,60.6,58.3,30.26,WNW,284,0.0,0.0,92,0.00,NA,NA,-99.99,VWS Version 10.38,2013-08-11 12:19:00,
2013-08-11 08:24:00,61.5,58.9,30.26,WNW,284,0.0,0.0,91,0.00,NA,NA,-99.99,VWS Version 10.38,2013-08-11 12:24:00,
2013-08-11 08:34:00,63.7,61.0,30.26,WNW,284,0.0,0.0,91,0.00,NA,NA,-99.99,VWS Version 10.38,2013-08-11 12:34:00,
2013-08-11 08:40:00,64.6,61.6,30.26,WNW,284,0.0,0.0,90,0.00,NA,NA,-99.99,VWS Version 10.38,2013-08-11 12:40:00,
2013-08-11 08:49:00,66.0,62.7,30.26,WNW,284,0.0,0.0,89,0.00,NA,NA,-99.99,VWS Version 10.38,2013-08-11 12:49:00,
2013-08-11 08:54:00,66.4,61.7,30.26,WSW,248,0.0,0.0,85,0.00,NA,NA,-99.99,VWS Version 10.38,2013-08-11 12:54:00,
2013-08-11 08:59:00,66.7,61.4,30.26,SW,235,0.0,0.0,83,0.00,NA,NA,-99.99,VWS Version 10.38,2013-08-11 12:59:00,
2013-08-11 09:04:00,67.1,60.0,30.26,SW,235,0.0,0.0,78,0.00,NA,NA,-99.99,VWS Version 10.38,2013-08-11 13:04:00,
2013-08-11 09:09:00,67.6,59.8,30.26,SW,235,0.0,0.0,76,0.00,NA,NA,-99.99,VWS Version 10.38,2013-08-11 13:09:00,
2013-08-11 09:19:00,68.9,47.3,30.26,NE,56,0.0,0.0,46,0.00,NA,NA,-99.99,VWS Version 10.38,2013-08-11 13:19:00,
2013-08-11 09:24:00,69.8,47.5,30.26,SE,143,0.0,0.0,45,0.00,NA,NA,-99.99,VWS Version 10.38,2013-08-11 13:24:00,
2013-08-11 09:29:00,71.1,49.3,30.26,SE,143,0.0,0.0,46,0.00,NA,NA,-99.99,VWS Version 10.38,2013-08-11 13:29:00,
2013-08-11 09:39:00,73.0,49.2,30.26,SSW,212,0.0,0.0,43,0.00,NA,NA,-99.99,VWS Version 10.38,2013-08-11 13:39:00,
2013-08-11 09:49:00,73.8,41.3,30.26,East,83,2.2,2.2,31,0.00,NA,NA,-99.99,VWS Version 10.38,2013-08-11 13:49:00,
2013-08-11 09:54:00,73.9,43.8,30.26,SE,126,3.6,3.6,34,0.00,NA,NA,-99.99,VWS Version 10.38,2013-08-11 13:54:00,
2013-08-11 09:59:00,73.9,43.8,30.26,West,268,0.0,0.0,34,0.00,NA,NA,-99.99,VWS Version 10.38,2013-08-11 13:59:00,
2013-08-11 10:04:00,74.5,45.1,30.26,SE,134,0.0,0.0,35,0.00,NA,NA,-99.99,VWS Version 10.38,2013-08-11 14:04:00,
2013-08-11 10:09:00,75.0,43.2,30.26,SE,145,0.0,0.0,32,0.00,NA,NA,-99.99,VWS Version 10.38,2013-08-11 14:09:00,
2013-08-11 10:14:00,75.2,42.5,30.26,ENE,71,0.0,0.0,31,0.00,NA,NA,-99.99,VWS Version 10.38,2013-08-11 14:14:00,
2013-08-11 10:19:00,75.4,43.5,30.26,NW,308,2.7,2.7,32,0.00,NA,NA,-99.99,VWS Version 10.38,2013-08-11 14:19:00,
2013-08-11 10:29:00,75.6,42.8,30.26,ESE,103,0.0,0.0,31,0.00,NA,NA,-99.99,VWS Version 10.38,2013-08-11 14:29:00,
2013-08-11 10:34:00,75.4,43.5,30.26,NW,310,0.0,0.0,32,0.00,NA,NA,-99.99,VWS Version 10.38,2013-08-11 14:34:00,
2013-08-11 10:39:00,75.4,43.5,30.26,SW,218,4.0,4.0,32,0.00,NA,NA,-99.99,VWS Version 10.38,2013-08-11 14:39:00,
2013-08-11 10:44:00,75.7,44.6,30.26,NNW,334,0.0,0.0,33,0.00,NA,NA,-99.99,VWS Version 10.38,2013-08-11 14:44:00,
2013-08-11 10:49:00,76.3,44.3,30.26,WNW,291,0.0,0.0,32,0.00,NA,NA,-99.99,VWS Version 10.38,2013-08-11 14:49:00,
2013-08-11 10:54:00,76.5,43.6,30.26,WNW,287,2.7,2.7,31,0.00,NA,NA,-99.99,VWS Version 10.38,2013-08-11 14:54:00,
2013-08-11 11:04:00,77.4,44.4,30.26,West,280,3.6,3.6,31,0.00,NA,NA,-99.99,VWS Version 10.38,2013-08-11 15:04:00,
2013-08-11 11:14:00,77.7,44.7,30.23,WSW,243,2.7,2.7,31,0.00,NA,NA,-99.99,VWS Version 10.38,2013-08-11 15:14:00,
2013-08-11 11:19:00,77.7,43.0,30.23,SSW,206,2.7,2.7,29,0.00,NA,NA,-99.99,VWS Version 10.38,2013-08-11 15:19:00,
2013-08-11 11:24:00,77.5,41.9,30.23,NW,313,0.0,0.0,28,0.00,NA,NA,-99.99,VWS Version 10.38,2013-08-11 15:24:00,
2013-08-11 11:29:00,76.1,40.7,30.23,West,261,3.1,3.1,28,0.00,NA,NA,-99.99,VWS Version 10.38,2013-08-11 15:29:00,
2013-08-11 11:39:00,75.9,43.1,30.23,SSW,202,0.0,0.0,31,0.00,NA,NA,-99.99,VWS Version 10.38,2013-08-11 15:39:00,
2013-08-11 11:44:00,76.8,43.1,30.23,SSW,208,3.6,3.6,30,0.00,NA,NA,-99.99,VWS Version 10.38,2013-08-11 15:44:00,
2013-08-11 11:49:00,77.4,40.8,30.23,WSW,248,3.1,3.1,27,0.00,NA,NA,-99.99,VWS Version 10.38,2013-08-11 15:49:00,
2013-08-11 11:59:00,77.9,40.3,30.23,West,261,4.9,4.9,26,0.00,NA,NA,-99.99,VWS Version 10.38,2013-08-11 15:59:00,
2013-08-11 12:04:00,78.3,38.5,30.23,WNW,283,2.7,2.7,24,0.00,NA,NA,-99.99,VWS Version 10.38,2013-08-11 16:04:00,
2013-08-11 12:09:00,78.4,39.7,30.23,SSW,211,4.0,4.0,25,0.00,NA,NA,-99.99,VWS Version 10.38,2013-08-11 16:09:00,
2013-08-11 12:19:00,78.3,37.5,30.23,SW,214,4.0,4.0,23,0.00,NA,NA,-99.99,VWS Version 10.38,2013-08-11 16:19:00,
2013-08-11 12:24:00,78.4,38.7,30.23,SW,227,5.4,5.4,24,0.00,NA,NA,-99.99,VWS Version 10.38,2013-08-11 16:24:00,
2013-08-11 12:29:00,78.6,38.8,30.23,WSW,258,3.6,3.6,24,0.00,NA,NA,-99.99,VWS Version 10.38,2013-08-11 16:29:00,
2013-08-11 12:34:00,79.0,38.1,30.23,North,349,5.4,5.4,23,0.00,NA,NA,-99.99,VWS Version 10.38,2013-08-11 16:34:00,
2013-08-11 12:39:00,79.2,39.3,30.23,SW,224,2.2,2.2,24,0.00,NA,NA,-99.99,VWS Version 10.38,2013-08-11 16:39:00,
2013-08-11 12:44:00,78.6,35.5,30.23,West,260,3.6,3.6,21,0.00,NA,NA,-99.99,VWS Version 10.38,2013-08-11 16:44:00,
2013-08-11 12:49:00,78.1,37.3,30.23,NW,307,4.9,4.9,23,0.00,NA,NA,-99.99,VWS Version 10.38,2013-08-11 16:49:00,
2013-08-11 12:55:00,78.3,38.5,30.23,NNW,329,3.6,3.6,24,0.00,NA,NA,-99.99,VWS Version 10.38,2013-08-11 16:55:00,
2013-08-11 13:00:00,78.4,38.7,30.23,West,265,4.9,4.9,24,0.00,NA,NA,-99.99,VWS Version 10.38,2013-08-11 17:00:00,
2013-08-11 13:05:00,78.6,37.8,30.23,West,265,3.6,3.6,23,0.00,NA,NA,-99.99,VWS Version 10.38,2013-08-11 17:05:00,
2013-08-11 13:15:00,78.8,37.9,30.23,WNW,301,3.6,3.6,23,0.00,NA,NA,-99.99,VWS Version 10.38,2013-08-11 17:15:00,
2013-08-11 13:20:00,79.2,39.3,30.23,West,272,3.6,3.6,24,0.00,NA,NA,-99.99,VWS Version 10.38,2013-08-11 17:20:00,
2013-08-11 13:30:00,78.4,36.5,30.20,WNW,300,4.0,4.0,22,0.00,NA,NA,-99.99,VWS Version 10.38,2013-08-11 17:30:00,
2013-08-11 13:35:00,78.3,37.5,30.20,WSW,242,3.1,3.1,23,0.00,NA,NA,-99.99,VWS Version 10.38,2013-08-11 17:35:00,
2013-08-11 13:40:00,79.2,39.3,30.20,SSW,201,0.0,0.0,24,0.00,NA,NA,-99.99,VWS Version 10.38,2013-08-11 17:40:00,
2013-08-11 13:45:00,79.3,39.5,30.20,WNW,289,0.0,0.0,24,0.00,NA,NA,-99.99,VWS Version 10.38,2013-08-11 17:45:00,
2013-08-11 13:50:00,79.9,38.8,30.20,NNE,15,0.0,0.0,23,0.00,NA,NA,-99.99,VWS Version 10.38,2013-08-11 17:50:00,
2013-08-11 14:00:00,80.8,39.6,30.20,NW,320,3.1,3.1,23,0.00,NA,NA,-99.99,VWS Version 10.38,2013-08-11 18:00:00,
2013-08-11 14:05:00,80.6,39.4,30.20,WNW,293,0.0,0.0,23,0.00,NA,NA,-99.99,VWS Version 10.38,2013-08-11 18:05:00,
2013-08-11 14:15:00,79.2,38.2,30.20,WNW,294,2.2,2.2,23,0.00,NA,NA,-99.99,VWS Version 10.38,2013-08-11 18:15:00,
2013-08-11 14:20:00,79.7,41.8,30.20,NNW,342,2.7,2.7,26,0.00,NA,NA,-99.99,VWS Version 10.38,2013-08-11 18:20:00,
2013-08-11 14:30:00,81.0,39.7,30.20,SW,217,2.7,2.7,23,0.00,NA,NA,-99.99,VWS Version 10.38,2013-08-11 18:30:00,
2013-08-11 14:35:00,81.0,40.8,30.20,WSW,246,5.4,5.4,24,0.00,NA,NA,-99.99,VWS Version 10.38,2013-08-11 18:35:00,
2013-08-11 14:40:00,81.0,39.7,30.20,WSW,244,2.2,2.2,23,0.00,NA,NA,-99.99,VWS Version 10.38,2013-08-11 18:40:00,
2013-08-11 14:45:00,81.1,39.9,30.20,WNW,291,5.8,5.8,23,0.00,NA,NA,-99.99,VWS Version 10.38,2013-08-11 18:45:00,
2013-08-11 14:50:00,81.1,41.0,30.20,NW,310,3.1,3.1,24,0.00,NA,NA,-99.99,VWS Version 10.38,2013-08-11 18:50:00,
2013-08-11 15:00:00,81.7,42.5,30.20,North,357,2.2,2.2,25,0.00,NA,NA,-99.99,VWS Version 10.38,2013-08-11 19:00:00,
2013-08-11 15:10:00,81.1,41.0,30.20,SW,220,3.1,3.1,24,0.00,NA,NA,-99.99,VWS Version 10.38,2013-08-11 19:10:00,
2013-08-11 15:15:00,80.8,40.7,30.20,NNE,22,0.0,0.0,24,0.00,NA,NA,-99.99,VWS Version 10.38,2013-08-11 19:15:00,
2013-08-11 15:20:00,81.1,43.0,30.20,WNW,292,5.8,5.8,26,0.00,NA,NA,-99.99,VWS Version 10.38,2013-08-11 19:20:00,
2013-08-11 15:25:00,81.1,39.9,30.17,SW,221,2.7,2.7,23,0.00,NA,NA,-99.99,VWS Version 10.38,2013-08-11 19:25:00,
2013-08-11 15:34:00,81.1,41.0,30.17,WSW,244,3.6,3.6,24,0.00,NA,NA,-99.99,VWS Version 10.38,2013-08-11 19:34:00,
2013-08-11 15:39:00,81.5,42.3,30.17,West,264,4.0,4.0,25,0.00,NA,NA,-99.99,VWS Version 10.38,2013-08-11 19:39:00,
2013-08-11 15:44:00,82.0,41.7,30.17,NE,35,2.7,2.7,24,0.00,NA,NA,-99.99,VWS Version 10.38,2013-08-11 19:44:00,
2013-08-11 15:49:00,81.7,41.4,30.17,ESE,116,2.7,2.7,24,0.00,NA,NA,-99.99,VWS Version 10.38,2013-08-11 19:49:00,
2013-08-11 15:54:00,81.5,42.3,30.17,SSE,155,4.0,4.0,25,0.00,NA,NA,-99.99,VWS Version 10.38,2013-08-11 19:54:00,
2013-08-11 15:59:00,81.5,44.3,30.17,WSW,243,2.2,2.2,27,0.00,NA,NA,-99.99,VWS Version 10.38,2013-08-11 19:59:00,
2013-08-11 16:09:00,81.1,44.0,30.17,SSW,211,2.2,2.2,27,0.00,NA,NA,-99.99,VWS Version 10.38,2013-08-11 20:09:00,
2013-08-11 16:19:00,80.4,44.4,30.17,SSW,198,2.2,2.2,28,0.00,NA,NA,-99.99,VWS Version 10.38,2013-08-11 20:19:00,
2013-08-11 16:24:00,80.2,43.3,30.17,West,266,0.0,0.0,27,0.00,NA,NA,-99.99,VWS Version 10.38,2013-08-11 20:24:00,
2013-08-11 16:30:00,80.1,44.0,30.17,SSW,196,2.2,2.2,28,0.00,NA,NA,-99.99,VWS Version 10.38,2013-08-11 20:30:00,
2013-08-11 16:39:00,79.9,45.7,30.17,SSW,210,3.6,3.6,30,0.00,NA,NA,-99.99,VWS Version 10.38,2013-08-11 20:39:00,
2013-08-11 16:45:00,79.7,44.7,30.17,NNW,340,3.6,3.6,29,0.00,NA,NA,-99.99,VWS Version 10.38,2013-08-11 20:45:00,
2013-08-11 16:55:00,79.3,43.4,30.17,South,184,4.0,4.0,28,0.00,NA,NA,-99.99,VWS Version 10.38,2013-08-11 20:55:00,
2013-08-11 17:04:00,79.2,45.1,30.17,WSW,246,3.1,3.1,30,0.00,NA,NA,-99.99,VWS Version 10.38,2013-08-11 21:04:00,
2013-08-11 17:09:00,78.8,43.9,30.17,SSW,200,0.0,0.0,29,0.00,NA,NA,-99.99,VWS Version 10.38,2013-08-11 21:09:00,
2013-08-11 17:14:00,78.6,44.6,30.17,SE,146,3.1,3.1,30,0.00,NA,NA,-99.99,VWS Version 10.38,2013-08-11 21:14:00,
2013-08-11 17:19:00,78.6,44.6,30.17,NNW,346,5.4,5.4,30,0.00,NA,NA,-99.99,VWS Version 10.38,2013-08-11 21:19:00,
2013-08-11 17:24:00,78.4,44.5,30.17,SSW,211,0.0,0.0,30,0.00,NA,NA,-99.99,VWS Version 10.38,2013-08-11 21:24:00,
2013-08-11 17:34:00,78.1,44.2,30.17,ESE,111,0.0,0.0,30,0.00,NA,NA,-99.99,VWS Version 10.38,2013-08-11 21:34:00,
2013-08-11 17:40:00,77.7,43.8,30.17,SSE,149,0.0,0.0,30,0.00,NA,NA,-99.99,VWS Version 10.38,2013-08-11 21:40:00,
2013-08-11 17:49:00,77.4,44.4,30.17,SE,146,0.0,0.0,31,0.00,NA,NA,-99.99,VWS Version 10.38,2013-08-11 21:49:00,
2013-08-11 17:54:00,77.0,44.1,30.17,SW,222,0.0,0.0,31,0.00,NA,NA,-99.99,VWS Version 10.38,2013-08-11 21:54:00,
2013-08-11 17:59:00,76.6,43.8,30.17,West,275,0.0,0.0,31,0.00,NA,NA,-99.99,VWS Version 10.38,2013-08-11 21:59:00,
2013-08-11 18:04:00,76.6,43.8,30.17,SSW,202,0.0,0.0,31,0.00,NA,NA,-99.99,VWS Version 10.38,2013-08-11 22:04:00,
2013-08-11 18:15:00,76.6,43.8,30.14,SSE,155,0.0,0.0,31,0.00,NA,NA,-99.99,VWS Version 10.38,2013-08-11 22:15:00,
2013-08-11 18:24:00,76.6,43.8,30.17,SSW,196,0.0,0.0,31,0.00,NA,NA,-99.99,VWS Version 10.38,2013-08-11 22:24:00,
2013-08-11 18:29:00,76.6,43.8,30.17,SSE,167,0.0,0.0,31,0.00,NA,NA,-99.99,VWS Version 10.38,2013-08-11 22:29:00,
2013-08-11 18:34:00,76.6,43.8,30.17,SE,138,3.1,3.1,31,0.00,NA,NA,-99.99,VWS Version 10.38,2013-08-11 22:34:00,
2013-08-11 18:39:00,74.5,43.5,30.14,SW,233,2.2,2.2,33,0.00,NA,NA,-99.99,VWS Version 10.38,2013-08-11 22:39:00,
2013-08-11 18:44:00,74.1,43.2,30.14,SW,214,0.0,0.0,33,0.00,NA,NA,-99.99,VWS Version 10.38,2013-08-11 22:44:00,
2013-08-11 18:54:00,73.8,43.7,30.14,WNW,293,0.0,0.0,34,0.00,NA,NA,-99.99,VWS Version 10.38,2013-08-11 22:54:00,
2013-08-11 18:59:00,73.4,43.3,30.14,NNE,24,0.0,0.0,34,0.00,NA,NA,-99.99,VWS Version 10.38,2013-08-11 22:59:00,
2013-08-11 19:04:00,72.9,43.6,30.14,SW,217,0.0,0.0,35,0.00,NA,NA,-99.99,VWS Version 10.38,2013-08-11 23:04:00,
2013-08-11 19:09:00,72.5,43.3,30.17,SW,217,0.0,0.0,35,0.00,NA,NA,-99.99,VWS Version 10.38,2013-08-11 23:09:00,
2013-08-11 19:14:00,72.0,43.6,30.17,SW,217,0.0,0.0,36,0.00,NA,NA,-99.99,VWS Version 10.38,2013-08-11 23:14:00,
2013-08-11 19:19:00,71.2,45.0,30.17,SW,217,0.0,0.0,39,0.00,NA,NA,-99.99,VWS Version 10.38,2013-08-11 23:19:00,
2013-08-11 19:25:00,70.3,45.5,30.17,WSW,243,0.0,0.0,41,0.00,NA,NA,-99.99,VWS Version 10.38,2013-08-11 23:25:00,
2013-08-11 19:34:00,68.5,47.5,30.17,WSW,243,0.0,0.0,47,0.00,NA,NA,-99.99,VWS Version 10.38,2013-08-11 23:34:00,
2013-08-11 19:44:00,67.1,49.4,30.17,WSW,243,0.0,0.0,53,0.00,NA,NA,-99.99,VWS Version 10.38,2013-08-11 23:44:00,
2013-08-11 19:49:00,66.7,50.6,30.17,WSW,243,0.0,0.0,56,0.00,NA,NA,-99.99,VWS Version 10.38,2013-08-11 23:49:00,
2013-08-11 19:54:00,66.2,50.1,30.17,WSW,243,0.0,0.0,56,0.00,NA,NA,-99.99,VWS Version 10.38,2013-08-11 23:54:00,
2013-08-11 20:04:00,65.5,50.8,30.17,WSW,243,0.0,0.0,59,0.00,NA,NA,-99.99,VWS Version 10.38,2013-08-12 00:04:00,
2013-08-11 20:14:00,64.9,51.6,30.17,WSW,243,0.0,0.0,62,0.00,NA,NA,-99.99,VWS Version 10.38,2013-08-12 00:14:00,
2013-08-11 20:19:00,64.4,51.1,30.17,WSW,243,0.0,0.0,62,0.00,NA,NA,-99.99,VWS Version 10.38,2013-08-12 00:19:00,
2013-08-11 20:24:00,64.2,51.4,30.17,WSW,243,0.0,0.0,63,0.00,NA,NA,-99.99,VWS Version 10.38,2013-08-12 00:24:00,
2013-08-11 20:29:00,64.0,51.2,30.17,WSW,243,0.0,0.0,63,0.00,NA,NA,-99.99,VWS Version 10.38,2013-08-12 00:29:00,
2013-08-11 20:34:00,63.9,51.0,30.17,WSW,243,0.0,0.0,63,0.00,NA,NA,-99.99,VWS Version 10.38,2013-08-12 00:34:00,
2013-08-11 20:39:00,63.7,51.3,30.17,WSW,243,0.0,0.0,64,0.00,NA,NA,-99.99,VWS Version 10.38,2013-08-12 00:39:00,
2013-08-11 20:44:00,63.3,51.4,30.17,WSW,243,0.0,0.0,65,0.00,NA,NA,-99.99,VWS Version 10.38,2013-08-12 00:44:00,
2013-08-11 20:54:00,63.0,51.4,30.17,WSW,243,0.0,0.0,66,0.00,NA,NA,-99.99,VWS Version 10.38,2013-08-12 00:54:00,
2013-08-11 20:59:00,63.0,51.4,30.17,WSW,243,0.0,0.0,66,0.00,NA,NA,-99.99,VWS Version 10.38,2013-08-12 00:59:00,
2013-08-11 21:04:00,62.8,51.3,30.17,WSW,243,0.0,0.0,66,0.00,NA,NA,-99.99,VWS Version 10.38,2013-08-12 01:04:00,
2013-08-11 21:09:00,62.6,51.5,30.17,WSW,243,0.0,0.0,67,0.00,NA,NA,-99.99,VWS Version 10.38,2013-08-12 01:09:00,
2013-08-11 21:19:00,62.2,51.6,30.17,WSW,243,0.0,0.0,68,0.00,NA,NA,-99.99,VWS Version 10.38,2013-08-12 01:19:00,
2013-08-11 21:29:00,61.9,51.6,30.20,WSW,243,0.0,0.0,69,0.00,NA,NA,-99.99,VWS Version 10.38,2013-08-12 01:29:00,
2013-08-11 21:34:00,61.7,51.8,30.20,WSW,243,0.0,0.0,70,0.00,NA,NA,-99.99,VWS Version 10.38,2013-08-12 01:34:00,
2013-08-11 21:39:00,61.3,51.9,30.20,WSW,243,0.0,0.0,71,0.00,NA,NA,-99.99,VWS Version 10.38,2013-08-12 01:39:00,
2013-08-11 21:44:00,61.3,52.2,30.20,WSW,243,0.0,0.0,72,0.00,NA,NA,-99.99,VWS Version 10.38,2013-08-12 01:44:00,
2013-08-11 21:54:00,61.0,51.9,30.20,WSW,243,0.0,0.0,72,0.00,NA,NA,-99.99,VWS Version 10.38,2013-08-12 01:54:00,
2013-08-11 21:59:00,61.0,51.9,30.20,WSW,243,0.0,0.0,72,0.00,NA,NA,-99.99,VWS Version 10.38,2013-08-12 01:59:00,
2013-08-11 22:04:00,60.8,52.1,30.20,WSW,243,0.0,0.0,73,0.00,NA,NA,-99.99,VWS Version 10.38,2013-08-12 02:04:00,
2013-08-11 22:09:00,60.6,51.9,30.20,WSW,243,0.0,0.0,73,0.00,NA,NA,-99.99,VWS Version 10.38,2013-08-12 02:09:00,
2013-08-11 22:19:00,60.4,52.1,30.20,WSW,243,0.0,0.0,74,0.00,NA,NA,-99.99,VWS Version 10.38,2013-08-12 02:19:00,
2013-08-11 22:24:00,60.3,52.0,30.20,WSW,243,0.0,0.0,74,0.00,NA,NA,-99.99,VWS Version 10.38,2013-08-12 02:24:00,
2013-08-11 22:29:00,60.3,52.0,30.20,WSW,243,0.0,0.0,74,0.00,NA,NA,-99.99,VWS Version 10.38,2013-08-12 02:29:00,
2013-08-11 22:34:00,60.1,52.1,30.20,WSW,243,0.0,0.0,75,0.00,NA,NA,-99.99,VWS Version 10.38,2013-08-12 02:34:00,
2013-08-11 22:44:00,60.1,52.1,30.20,WSW,243,0.0,0.0,75,0.00,NA,NA,-99.99,VWS Version 10.38,2013-08-12 02:44:00,
2013-08-11 22:49:00,60.1,52.1,30.20,WSW,243,0.0,0.0,75,0.00,NA,NA,-99.99,VWS Version 10.38,2013-08-12 02:49:00,
2013-08-11 22:54:00,59.9,52.3,30.20,WSW,243,0.0,0.0,76,0.00,NA,NA,-99.99,VWS Version 10.38,2013-08-12 02:54:00,
2013-08-11 23:04:00,59.7,52.5,30.20,WSW,243,0.0,0.0,77,0.00,NA,NA,-99.99,VWS Version 10.38,2013-08-12 03:04:00,
2013-08-11 23:14:00,59.7,52.5,30.20,WSW,243,0.0,0.0,77,0.00,NA,NA,-99.99,VWS Version 10.38,2013-08-12 03:14:00,
2013-08-11 23:19:00,59.5,52.7,30.20,WSW,243,0.0,0.0,78,0.00,NA,NA,-99.99,VWS Version 10.38,2013-08-12 03:19:00,
2013-08-11 23:24:00,59.5,53.0,30.20,WSW,243,0.0,0.0,79,0.00,NA,NA,-99.99,VWS Version 10.38,2013-08-12 03:24:00,
2013-08-11 23:34:00,59.7,53.2,30.20,WSW,243,0.0,0.0,79,0.00,NA,NA,-99.99,VWS Version 10.38,2013-08-12 03:34:00,
2013-08-11 23:39:00,59.7,53.2,30.20,WSW,243,0.0,0.0,79,0.00,NA,NA,-99.99,VWS Version 10.38,2013-08-12 03:39:00,
2013-08-11 23:44:00,59.5,53.0,30.20,WSW,243,0.0,0.0,79,0.00,NA,NA,-99.99,VWS Version 10.38,2013-08-12 03:44:00,
2013-08-11 23:54:00,59.5,53.4,30.17,WSW,243,0.0,0.0,80,0.00,NA,NA,-99.99,VWS Version 10.38,2013-08-12 03:54:00,
2013-08-11 23:59:00,59.5,53.4,30.17,WSW,243,0.0,0.0,80,0.00,NA,NA,-99.99,VWS Version 10.38,2013-08-12 03:59:00,